Observation data for Lamesa on 11/14/2019      Previous  Date  Next       Current Mesonet Observations  Soil Data  Daily Summary Page  Observations in Plain Language
KLES 140600Z 36003KT 02/00 A3007 RMK A01 T00150000  RH  091%=      5-min Rain = 0
KLES 140605Z 02002KT 02/00 A3007 RMK A01 T00150002  RH  092%=      5-min Rain = 0
KLES 140610Z 36003KT 02/00 A3007 RMK A01 T00160002  RH  091%=      5-min Rain = 0
KLES 140615Z 35002KT 02/00 A3007 RMK A01 T00160001  RH  091%=      5-min Rain = 0
KLES 140620Z 00002KT 02/00 A3007 RMK A01 T00160002  RH  092%=      5-min Rain = 0
KLES 140625Z 01002KT 02/00 A3008 RMK A01 T00160002  RH  091%=      5-min Rain = 0
KLES 140630Z 00003KT 01/M00 A3008 RMK A01 T00141001  RH  091%=      5-min Rain = 0
KLES 140635Z 35003KT 01/M00 A3008 RMK A01 T00131001  RH  091%=      5-min Rain = 0
KLES 140640Z 36003KT 01/M00 A3008 RMK A01 T00131001  RH  092%=      5-min Rain = 0
KLES 140645Z 36003KT 01/M00 A3008 RMK A01 T00131001  RH  092%=      5-min Rain = 0
KLES 140650Z 35003KT 01/00 A3008 RMK A01 T001300-0  RH  092%=      5-min Rain = 0
KLES 140655Z 35003KT 01/M00 A3009 RMK A01 T00131001  RH  092%=      5-min Rain = 0
KLES 140700Z 36002KT 01/M00 A3009 RMK A01 T00121001  RH  092%=      5-min Rain = 0
KLES 140705Z 35003KT 01/M00 A3009 RMK A01 T00121001  RH  092%=      5-min Rain = 0
KLES 140710Z 34003KT 01/M00 A3009 RMK A01 T00121001  RH  092%=      5-min Rain = 0
KLES 140715Z 34003KT 01/00 A3009 RMK A01 T001200-0  RH  092%=      5-min Rain = 0
KLES 140720Z 34002KT 01/M00 A3009 RMK A01 T00121001  RH  092%=      5-min Rain = 0
KLES 140725Z 35002KT 01/M00 A3009 RMK A01 T00111001  RH  093%=      5-min Rain = 0
KLES 140730Z 35002KT 01/M00 A3009 RMK A01 T00111001  RH  093%=      5-min Rain = 0
KLES 140735Z 36002KT 01/M00 A301 RMK A01 T00101002  RH  093%=      5-min Rain = 0
KLES 140740Z 01002KT 01/M00 A301 RMK A01 T00101003  RH  093%=      5-min Rain = 0
KLES 140745Z 02001KT 01/M01 A301 RMK A01 T00071005  RH  092%=      5-min Rain = 0
KLES 140750Z 01002KT 01/M01 A301 RMK A01 T00051006  RH  093%=      5-min Rain = 0
KLES 140755Z 01002KT 01/M01 A301 RMK A01 T00061005  RH  093%=      5-min Rain = 0
KLES 140800Z 00003KT 01/M00 A3011 RMK A01 T00081003  RH  093%=      5-min Rain = 0
KLES 140805Z 35004KT 01/M00 A3011 RMK A01 T00071004  RH  093%=      5-min Rain = 0
KLES 140810Z 35004KT 01/M00 A3011 RMK A01 T00071004  RH  094%=      5-min Rain = 0
KLES 140815Z 36004KT 01/M00 A3011 RMK A01 T00091002  RH  094%=      5-min Rain = 0
KLES 140820Z 36005KT 01/00 A3012 RMK A01 T00110001  RH  094%=      5-min Rain = 0
KLES 140825Z 00006KT 01/00 A3012 RMK A01 T00140003  RH  094%=      5-min Rain = 0
KLES 140830Z 01006KT 02/01 A3012 RMK A01 T00170006  RH  094%=      5-min Rain = 0
KLES 140835Z 01006KT 02/01 A3012 RMK A01 T00190007  RH  093%=      5-min Rain = 0
KLES 140840Z 01006KT 02/01 A3011 RMK A01 T00200006  RH  092%=      5-min Rain = 0
KLES 140845Z 01006KT 02/01 A3011 RMK A01 T00190005  RH  092%=      5-min Rain = 0
KLES 140850Z 01007KT 02/00 A3011 RMK A01 T00180004  RH  091%=      5-min Rain = 0
KLES 140855Z 01007KT 02/00 A3011 RMK A01 T00190004  RH  091%=      5-min Rain = 0
KLES 140900Z 01007KT 02/01 A3012 RMK A01 T00200005  RH  091%=      5-min Rain = 0
KLES 140905Z 01007KT 02/01 A3012 RMK A01 T00220006  RH  090%=      5-min Rain = 0
KLES 140910Z 01006KT 02/01 A3012 RMK A01 T00230007  RH  090%=      5-min Rain = 0
KLES 140915Z 01007KT 03/01 A3012 RMK A01 T00250007  RH  089%=      5-min Rain = 0
KLES 140920Z 00008KT 03/01 A3012 RMK A01 T00270009  RH  089%=      5-min Rain = 0
KLES 140925Z 00008KT 03/01 A3012 RMK A01 T00290010  RH  088%=      5-min Rain = 0
KLES 140930Z 01009KT 03/01 A3013 RMK A01 T00310010  RH  087%=      5-min Rain = 0
KLES 140935Z 01009KT 03/01 A3013 RMK A01 T00320010  RH  087%=      5-min Rain = 0
KLES 140940Z 01009KT 03/01 A3013 RMK A01 T00330010  RH  086%=      5-min Rain = 0
KLES 140945Z 01009KT 03/01 A3013 RMK A01 T00340010  RH  085%=      5-min Rain = 0
KLES 140950Z 01009KT 04/01 A3013 RMK A01 T00350010  RH  085%=      5-min Rain = 0
KLES 140955Z 01009KT 04/01 A3014 RMK A01 T00350009  RH  084%=      5-min Rain = 0
KLES 141000Z 01010KT 04/01 A3014 RMK A01 T00360009  RH  084%=      5-min Rain = 0
KLES 141005Z 01009KT 04/01 A3014 RMK A01 T00370009  RH  083%=      5-min Rain = 0
KLES 141010Z 00010KT 04/01 A3014 RMK A01 T00360009  RH  083%=      5-min Rain = 0
KLES 141015Z 00010KT 04/01 A3015 RMK A01 T00360009  RH  083%=      5-min Rain = 0
KLES 141020Z 01010KT 04/01 A3015 RMK A01 T00350008  RH  083%=      5-min Rain = 0
KLES 141025Z 01009KT 04/01 A3015 RMK A01 T00350008  RH  083%=      5-min Rain = 0
KLES 141030Z 01009KT 03/01 A3015 RMK A01 T00340007  RH  083%=      5-min Rain = 0
KLES 141035Z 02009KT 03/01 A3015 RMK A01 T00330006  RH  084%=      5-min Rain = 0
KLES 141040Z 02009KT 03/01 A3015 RMK A01 T00340006  RH  083%=      5-min Rain = 0
KLES 141045Z 03008KT 04/01 A3016 RMK A01 T00350006  RH  082%=      5-min Rain = 0
KLES 141050Z 02009G14KT 03/01 A3016 RMK A01 T00340005  RH  082%=      5-min Rain = 0
KLES 141055Z 02010KT 03/00 A3016 RMK A01 T00330004  RH  082%=      5-min Rain = 0
KLES 141100Z 02010KT 03/00 A3016 RMK A01 T00320003  RH  082%=      5-min Rain = 0
KLES 141105Z 02009KT 03/00 A3017 RMK A01 T00300002  RH  083%=      5-min Rain = 0
KLES 141110Z 02008KT 03/00 A3017 RMK A01 T00290001  RH  083%=      5-min Rain = 0
KLES 141115Z 02008KT 03/00 A3018 RMK A01 T00280000  RH  083%=      5-min Rain = 0
KLES 141120Z 02009KT 03/00 A3018 RMK A01 T00270000  RH  084%=      5-min Rain = 0
KLES 141125Z 02008KT 03/00 A3018 RMK A01 T002600-0  RH  084%=      5-min Rain = 0
KLES 141130Z 02009KT 03/M00 A3018 RMK A01 T00251001  RH  084%=      5-min Rain = 0
KLES 141135Z 02008KT 02/M00 A3019 RMK A01 T00241001  RH  084%=      5-min Rain = 0
KLES 141140Z 02008KT 02/M00 A3019 RMK A01 T00241002  RH  084%=      5-min Rain = 0
KLES 141145Z 02008KT 02/M00 A3019 RMK A01 T00241002  RH  084%=      5-min Rain = 0
KLES 141150Z 02008KT 02/M00 A3019 RMK A01 T00231002  RH  084%=      5-min Rain = 0
KLES 141155Z 02008KT 02/M00 A3019 RMK A01 T00231003  RH  084%=      5-min Rain = 0
KLES 141200Z 02008KT 02/M00 A302 RMK A01 T00231003  RH  084%=      5-min Rain = 0
KLES 141205Z 02008KT 02/M00 A302 RMK A01 T00221004  RH  084%=      5-min Rain = 0
KLES 141210Z 02007KT 02/M01 A302 RMK A01 T00211005  RH  084%=      5-min Rain = 0
KLES 141215Z 02008KT 02/M01 A302 RMK A01 T00201005  RH  085%=      5-min Rain = 0
KLES 141220Z 02007KT 02/M01 A3021 RMK A01 T00191005  RH  085%=      5-min Rain = 0
KLES 141225Z 02006KT 02/M01 A3021 RMK A01 T00181006  RH  085%=      5-min Rain = 0
KLES 141230Z 03006KT 02/M01 A3021 RMK A01 T00181006  RH  085%=      5-min Rain = 0
KLES 141235Z 03007KT 02/M01 A3021 RMK A01 T00181006  RH  085%=      5-min Rain = 0
KLES 141240Z 03007KT 02/M01 A3022 RMK A01 T00181007  RH  084%=      5-min Rain = 0
KLES 141245Z 02007KT 02/M01 A3022 RMK A01 T00181007  RH  084%=      5-min Rain = 0
KLES 141250Z 02007KT 02/M01 A3022 RMK A01 T00181008  RH  084%=      5-min Rain = 0
KLES 141255Z 02007KT 02/M01 A3023 RMK A01 T00171008  RH  084%=      5-min Rain = 0
KLES 141300Z 02007KT 02/M01 A3023 RMK A01 T00161009  RH  085%=      5-min Rain = 0
KLES 141305Z 02007KT 02/M01 A3024 RMK A01 T00161009  RH  084%=      5-min Rain = 0
KLES 141310Z 01007KT 02/M01 A3024 RMK A01 T00151010  RH  084%=      5-min Rain = 0
KLES 141315Z 01007KT 02/M01 A3025 RMK A01 T00151010  RH  084%=      5-min Rain = 0
KLES 141320Z 01007KT 02/M01 A3025 RMK A01 T00151010  RH  084%=      5-min Rain = 0
KLES 141325Z 01007KT 02/M01 A3025 RMK A01 T00161010  RH  084%=      5-min Rain = 0
KLES 141330Z 01007KT 02/M01 A3026 RMK A01 T00171009  RH  084%=      5-min Rain = 0
KLES 141335Z 00006KT 02/M01 A3026 RMK A01 T00181009  RH  083%=      5-min Rain = 0
KLES 141340Z 01007KT 02/M01 A3027 RMK A01 T00191009  RH  082%=      5-min Rain = 0
KLES 141345Z 01008KT 02/M01 A3027 RMK A01 T00201009  RH  082%=      5-min Rain = 0
KLES 141350Z 02008KT 02/M01 A3027 RMK A01 T00221009  RH  081%=      5-min Rain = 0
KLES 141355Z 02008KT 02/M01 A3027 RMK A01 T00241009  RH  080%=      5-min Rain = 0
KLES 141400Z 02009KT 03/M01 A3028 RMK A01 T00251009  RH  079%=      5-min Rain = 0
KLES 141405Z 02008KT 03/M01 A3029 RMK A01 T00271009  RH  078%=      5-min Rain = 0
KLES 141410Z 02008KT 03/M01 A3029 RMK A01 T00291009  RH  077%=      5-min Rain = 0
KLES 141415Z 02008KT 03/M01 A303 RMK A01 T00311008  RH  076%=      5-min Rain = 0
KLES 141420Z 02008KT 03/M01 A303 RMK A01 T00331008  RH  075%=      5-min Rain = 0
KLES 141425Z 01008KT 04/M01 A3031 RMK A01 T00361008  RH  074%=      5-min Rain = 0
KLES 141430Z 02008KT 04/M01 A3032 RMK A01 T00391009  RH  072%=      5-min Rain = 0
KLES 141435Z 02009KT 04/M01 A3032 RMK A01 T00411011  RH  069%=      5-min Rain = 0
KLES 141440Z 03009G14KT 04/M01 A3032 RMK A01 T00441013  RH  067%=      5-min Rain = 0
KLES 141445Z 03010G15KT 05/M02 A3033 RMK A01 T00461015  RH  065%=      5-min Rain = 0
KLES 141450Z 03010G15KT 05/M02 A3033 RMK A01 T00481017  RH  063%=      5-min Rain = 0
KLES 141455Z 03012G17KT 05/M02 A3033 RMK A01 T00501020  RH  061%=      5-min Rain = 0
KLES 141500Z 04011G17KT 05/M02 A3034 RMK A01 T00511022  RH  060%=      5-min Rain = 0
KLES 141505Z 04010G16KT 05/M02 A3034 RMK A01 T00541020  RH  059%=      5-min Rain = 0
KLES 141510Z 03011G18KT 06/M02 A3034 RMK A01 T00551022  RH  058%=      5-min Rain = 0
KLES 141515Z 04011G17KT 06/M02 A3035 RMK A01 T00561023  RH  057%=      5-min Rain = 0
KLES 141520Z 04011G16KT 06/M02 A3035 RMK A01 T00581022  RH  057%=      5-min Rain = 0
KLES 141525Z 03011G17KT 06/M02 A3035 RMK A01 T00591020  RH  057%=      5-min Rain = 0
KLES 141530Z 04011G16KT 06/M02 A3035 RMK A01 T00611019  RH  057%=      5-min Rain = 0
KLES 141535Z 04012G18KT 06/M02 A3036 RMK A01 T00621018  RH  057%=      5-min Rain = 0
KLES 141540Z 04012G18KT 06/M01 A3036 RMK A01 T00641013  RH  058%=      5-min Rain = 0
KLES 141545Z 04011G18KT 07/M01 A3036 RMK A01 T00651009  RH  060%=      5-min Rain = 0
KLES 141550Z 05012G20KT 07/M00 A3036 RMK A01 T00691003  RH  061%=      5-min Rain = 0
KLES 141555Z 04014G23KT 07/00 A3036 RMK A01 T006900-0  RH  062%=      5-min Rain = 0
KLES 141600Z 04013G20KT 07/00 A3036 RMK A01 T00710002  RH  062%=      5-min Rain = 0
KLES 141605Z 04014G20KT 07/00 A3036 RMK A01 T00710001  RH  062%=      5-min Rain = 0
KLES 141610Z 05015G21KT 07/00 A3036 RMK A01 T007000-0  RH  061%=      5-min Rain = 0
KLES 141615Z 05017G22KT 07/M00 A3037 RMK A01 T00711002  RH  060%=      5-min Rain = 0
KLES 141620Z 05015G22KT 07/M00 A3037 RMK A01 T00721002  RH  060%=      5-min Rain = 0
KLES 141625Z 06015G21KT 07/M00 A3037 RMK A01 T00741001  RH  060%=      5-min Rain = 0
KLES 141630Z 05017G25KT 07/M00 A3037 RMK A01 T00741003  RH  059%=      5-min Rain = 0
KLES 141635Z 06016G22KT 07/M00 A3037 RMK A01 T00741003  RH  059%=      5-min Rain = 0
KLES 141640Z 06015G21KT 08/M00 A3038 RMK A01 T00751002  RH  059%=      5-min Rain = 0
KLES 141645Z 06012G18KT 08/M00 A3038 RMK A01 T00781001  RH  058%=      5-min Rain = 0
KLES 141650Z 05011G20KT 08/00 A3038 RMK A01 T00820001  RH  058%=      5-min Rain = 0
KLES 141655Z 06017G22KT 08/M00 A3038 RMK A01 T00801002  RH  057%=      5-min Rain = 0
KLES 141700Z 05014G20KT 08/00 A3039 RMK A01 T008000-0  RH  058%=      5-min Rain = 0
KLES 141705Z 04014G22KT 08/M00 A3039 RMK A01 T00801001  RH  057%=      5-min Rain = 0
KLES 141710Z 05013G20KT 08/00 A3039 RMK A01 T00810000  RH  057%=      5-min Rain = 0
KLES 141715Z 05012G19KT 09/00 A3039 RMK A01 T00850002  RH  057%=      5-min Rain = 0
KLES 141720Z 05014G20KT 08/00 A3039 RMK A01 T008400-0  RH  056%=      5-min Rain = 0
KLES 141725Z 05012G18KT 08/00 A3039 RMK A01 T00840001  RH  056%=      5-min Rain = 0
KLES 141730Z 04016G25KT 09/M00 A3039 RMK A01 T00851001  RH  055%=      5-min Rain = 0
KLES 141735Z 05015G22KT 08/M00 A3039 RMK A01 T00841001  RH  055%=      5-min Rain = 0
KLES 141740Z 05014G20KT 09/00 A304 RMK A01 T00860000  RH  056%=      5-min Rain = 0
KLES 141745Z 06011G18KT 09/00 A304 RMK A01 T00880001  RH  055%=      5-min Rain = 0
KLES 141750Z 05012G17KT 09/00 A3039 RMK A01 T00890001  RH  055%=      5-min Rain = 0
KLES 141755Z 04010G17KT 09/00 A3039 RMK A01 T00890002  RH  055%=      5-min Rain = 0
KLES 141800Z 06012KT 09/00 A3039 RMK A01 T00900002  RH  055%=      5-min Rain = 0
KLES 141805Z 05011G16KT 09/00 A3039 RMK A01 T009000-0  RH  054%=      5-min Rain = 0
KLES 141810Z 05011G17KT 09/00 A3039 RMK A01 T009000-0  RH  054%=      5-min Rain = 0
KLES 141815Z 05012G17KT 09/M00 A3039 RMK A01 T00911002  RH  053%=      5-min Rain = 0
KLES 141820Z 05011G17KT 09/00 A3039 RMK A01 T00910001  RH  054%=      5-min Rain = 0
KLES 141825Z 05011G18KT 09/00 A3039 RMK A01 T00920000  RH  053%=      5-min Rain = 0
KLES 141830Z 04011G16KT 09/00 A3039 RMK A01 T00930001  RH  053%=      5-min Rain = 0
KLES 141835Z 03011KT 09/00 A3039 RMK A01 T00940000  RH  053%=      5-min Rain = 0
KLES 141840Z 05010G16KT 10/00 A3039 RMK A01 T00970001  RH  052%=      5-min Rain = 0
KLES 141845Z 05011G17KT 10/00 A3038 RMK A01 T00960001  RH  052%=      5-min Rain = 0
KLES 141850Z 05008G13KT 10/00 A3038 RMK A01 T00960000  RH  052%=      5-min Rain = 0
KLES 141855Z 05010KT 10/00 A3038 RMK A01 T009600-0  RH  051%=      5-min Rain = 0
KLES 141900Z 03010G16KT 10/00 A3038 RMK A01 T009900-0  RH  051%=      5-min Rain = 0
KLES 141905Z 05009KT 10/M00 A3037 RMK A01 T01001002  RH  050%=      5-min Rain = 0
KLES 141910Z 06012G18KT 10/M00 A3037 RMK A01 T00991002  RH  050%=      5-min Rain = 0
KLES 141915Z 06010G16KT 10/M00 A3037 RMK A01 T00991003  RH  050%=      5-min Rain = 0
KLES 141920Z 05011G17KT 10/M00 A3037 RMK A01 T01001004  RH  049%=      5-min Rain = 0
KLES 141925Z 05011G16KT 10/M00 A3037 RMK A01 T01011004  RH  049%=      5-min Rain = 0
KLES 141930Z 05010KT 10/M00 A3037 RMK A01 T01011003  RH  049%=      5-min Rain = 0
KLES 141935Z 05010KT 10/M00 A3036 RMK A01 T01031002  RH  049%=      5-min Rain = 0
KLES 141940Z 05010G15KT 10/M00 A3037 RMK A01 T01011003  RH  049%=      5-min Rain = 0
KLES 141945Z 05008G16KT 10/M00 A3036 RMK A01 T01031002  RH  049%=      5-min Rain = 0
KLES 141950Z 05009G14KT 10/M00 A3036 RMK A01 T01031003  RH  048%=      5-min Rain = 0
KLES 141955Z 05009G16KT 11/M00 A3036 RMK A01 T01051002  RH  048%=      5-min Rain = 0
KLES 142000Z 06010G17KT 11/M00 A3036 RMK A01 T01081002  RH  047%=      5-min Rain = 0
KLES 142005Z 06011KT 11/M00 A3036 RMK A01 T01061003  RH  047%=      5-min Rain = 0
KLES 142010Z 03009G15KT 11/M00 A3036 RMK A01 T01051003  RH  047%=      5-min Rain = 0
KLES 142015Z 04008KT 11/M01 A3036 RMK A01 T01081005  RH  046%=      5-min Rain = 0
KLES 142020Z 05010KT 11/M00 A3035 RMK A01 T01101004  RH  046%=      5-min Rain = 0
KLES 142025Z 05008G14KT 11/M00 A3035 RMK A01 T01101003  RH  046%=      5-min Rain = 0
KLES 142030Z 05009G14KT 11/M00 A3035 RMK A01 T01101004  RH  046%=      5-min Rain = 0
KLES 142035Z 03009G14KT 11/M01 A3035 RMK A01 T01101005  RH  045%=      5-min Rain = 0
KLES 142040Z 05009G14KT 11/M01 A3035 RMK A01 T01111005  RH  045%=      5-min Rain = 0
KLES 142045Z 05011G16KT 11/M01 A3035 RMK A01 T01121008  RH  044%=      5-min Rain = 0
KLES 142050Z 04008G13KT 11/M01 A3035 RMK A01 T01091008  RH  045%=      5-min Rain = 0
KLES 142055Z 07010KT 11/M01 A3035 RMK A01 T01111008  RH  044%=      5-min Rain = 0
KLES 142100Z 05010KT 11/M01 A3035 RMK A01 T01111008  RH  044%=      5-min Rain = 0
KLES 142105Z 06010G15KT 11/M01 A3035 RMK A01 T01101008  RH  044%=      5-min Rain = 0
KLES 142110Z 07010KT 11/M01 A3035 RMK A01 T01121009  RH  044%=      5-min Rain = 0
KLES 142115Z 05008G13KT 11/M01 A3035 RMK A01 T01131008  RH  044%=      5-min Rain = 0
KLES 142120Z 06010G15KT 11/M01 A3035 RMK A01 T01131010  RH  043%=      5-min Rain = 0
KLES 142125Z 05011KT 11/M01 A3035 RMK A01 T01111010  RH  043%=      5-min Rain = 0
KLES 142130Z 04009G14KT 11/M01 A3035 RMK A01 T01111009  RH  044%=      5-min Rain = 0
KLES 142135Z 05007G12KT 11/M01 A3035 RMK A01 T01131007  RH  044%=      5-min Rain = 0
KLES 142140Z 05008G13KT 11/M01 A3035 RMK A01 T01131008  RH  043%=      5-min Rain = 0
KLES 142145Z 06008G13KT 11/M01 A3035 RMK A01 T01111009  RH  044%=      5-min Rain = 0
KLES 142150Z 07007KT 11/M01 A3035 RMK A01 T01131008  RH  044%=      5-min Rain = 0
KLES 142155Z 05009G14KT 11/M01 A3035 RMK A01 T01131008  RH  044%=      5-min Rain = 0
KLES 142200Z 05009G14KT 11/M01 A3035 RMK A01 T01131009  RH  043%=      5-min Rain = 0
KLES 142205Z 04008G13KT 11/M01 A3035 RMK A01 T01111010  RH  043%=      5-min Rain = 0
KLES 142210Z 05006KT 11/M01 A3035 RMK A01 T01111008  RH  044%=      5-min Rain = 0
KLES 142215Z 05008G13KT 11/M01 A3035 RMK A01 T01121007  RH  044%=      5-min Rain = 0
KLES 142220Z 03007G12KT 11/M01 A3035 RMK A01 T01121008  RH  044%=      5-min Rain = 0
KLES 142225Z 05008KT 11/M01 A3035 RMK A01 T01111008  RH  044%=      5-min Rain = 0
KLES 142230Z 05008G13KT 11/M01 A3035 RMK A01 T01101008  RH  044%=      5-min Rain = 0
KLES 142235Z 03008KT 11/M01 A3036 RMK A01 T01101008  RH  044%=      5-min Rain = 0
KLES 142240Z 05006KT 11/M01 A3036 RMK A01 T01101006  RH  045%=      5-min Rain = 0
KLES 142245Z 05007KT 11/M01 A3036 RMK A01 T01101007  RH  045%=      5-min Rain = 0
KLES 142250Z 07007KT 11/M01 A3036 RMK A01 T01081008  RH  045%=      5-min Rain = 0
KLES 142255Z 06006KT 11/M01 A3036 RMK A01 T01071007  RH  045%=      5-min Rain = 0
KLES 142300Z 05007KT 11/M01 A3036 RMK A01 T01071008  RH  045%=      5-min Rain = 0
KLES 142305Z 05006KT 11/M01 A3036 RMK A01 T01061009  RH  045%=      5-min Rain = 0
KLES 142310Z 05006KT 11/M01 A3036 RMK A01 T01051010  RH  045%=      5-min Rain = 0
KLES 142315Z 06005KT 10/M01 A3037 RMK A01 T01041008  RH  046%=      5-min Rain = 0
KLES 142320Z 05005KT 10/M01 A3037 RMK A01 T01031007  RH  047%=      5-min Rain = 0
KLES 142325Z 06005KT 10/M01 A3037 RMK A01 T01011006  RH  048%=      5-min Rain = 0
KLES 142330Z 07005KT 10/M01 A3037 RMK A01 T01001007  RH  048%=      5-min Rain = 0
KLES 142335Z 06004KT 10/M01 A3037 RMK A01 T00981006  RH  049%=      5-min Rain = 0
KLES 142340Z 05004KT 10/M01 A3037 RMK A01 T00951005  RH  050%=      5-min Rain = 0
KLES 142345Z 05004KT 09/M01 A3037 RMK A01 T00921005  RH  051%=      5-min Rain = 0
KLES 142350Z 06004KT 09/M01 A3038 RMK A01 T00891005  RH  052%=      5-min Rain = 0
KLES 142355Z 06003KT 09/M01 A3038 RMK A01 T00871005  RH  053%=      5-min Rain = 0
KLES 150000Z 06003KT 08/M00 A3038 RMK A01 T00841004  RH  054%=      5-min Rain = 0
KLES 150005Z 06004KT 08/M00 A3038 RMK A01 T00821004  RH  055%=      5-min Rain = 0
KLES 150010Z 05004KT 08/M00 A3038 RMK A01 T00801004  RH  056%=      5-min Rain = 0
KLES 150015Z 06004KT 08/M00 A3039 RMK A01 T00801004  RH  056%=      5-min Rain = 0
KLES 150020Z 05003KT 08/M00 A3039 RMK A01 T00801004  RH  056%=      5-min Rain = 0
KLES 150025Z 06003KT 08/M00 A3039 RMK A01 T00781004  RH  056%=      5-min Rain = 0
KLES 150030Z 06004KT 08/M00 A3039 RMK A01 T00761004  RH  058%=      5-min Rain = 0
KLES 150035Z 06004KT 07/M00 A3039 RMK A01 T00741004  RH  058%=      5-min Rain = 0
KLES 150040Z 06003KT 07/M00 A304 RMK A01 T00731003  RH  059%=      5-min Rain = 0
KLES 150045Z 06003KT 07/M00 A304 RMK A01 T00721003  RH  060%=      5-min Rain = 0
KLES 150050Z 06003KT 07/M00 A304 RMK A01 T00701003  RH  060%=      5-min Rain = 0
KLES 150055Z 06003KT 07/M00 A304 RMK A01 T00691003  RH  061%=      5-min Rain = 0
KLES 150100Z 06003KT 07/M00 A304 RMK A01 T00681003  RH  061%=      5-min Rain = 0
KLES 150105Z 06004KT 07/M00 A304 RMK A01 T00671003  RH  061%=      5-min Rain = 0
KLES 150110Z 06004KT 07/M00 A304 RMK A01 T00681003  RH  061%=      5-min Rain = 0
KLES 150115Z 06003KT 07/M00 A3041 RMK A01 T00671003  RH  062%=      5-min Rain = 0
KLES 150120Z 07002KT 06/M01 A3041 RMK A01 T00641005  RH  062%=      5-min Rain = 0
KLES 150125Z 07001KT 06/M01 A3041 RMK A01 T00611006  RH  063%=      5-min Rain = 0
KLES 150130Z 06000KT 06/M01 A3041 RMK A01 T00591005  RH  064%=      5-min Rain = 0
KLES 150135Z 06001KT 06/M01 A3041 RMK A01 T00581005  RH  065%=      5-min Rain = 0
KLES 150140Z 07001KT 06/M01 A3041 RMK A01 T00561005  RH  065%=      5-min Rain = 0
KLES 150145Z 07001KT 05/M01 A3041 RMK A01 T00541007  RH  065%=      5-min Rain = 0
KLES 150150Z 06001KT 05/M01 A3042 RMK A01 T00521007  RH  066%=      5-min Rain = 0
KLES 150155Z 06002KT 05/M00 A3042 RMK A01 T00521004  RH  068%=      5-min Rain = 0
KLES 150200Z 06001KT 05/M00 A3042 RMK A01 T00521004  RH  068%=      5-min Rain = 0
KLES 150205Z 07001KT 05/M01 A3042 RMK A01 T00501006  RH  068%=      5-min Rain = 0
KLES 150210Z 07001KT 05/M01 A3042 RMK A01 T00471007  RH  069%=      5-min Rain = 0
KLES 150215Z 07001KT 05/M01 A3042 RMK A01 T00451008  RH  069%=      5-min Rain = 0
KLES 150220Z 07001KT 04/M01 A3042 RMK A01 T00431008  RH  070%=      5-min Rain = 0
KLES 150225Z 07001KT 04/M01 A3042 RMK A01 T00431005  RH  072%=      5-min Rain = 0
KLES 150230Z 07001KT 04/M01 A3043 RMK A01 T00421005  RH  072%=      5-min Rain = 0
KLES 150235Z 07001KT 04/M01 A3043 RMK A01 T00411005  RH  073%=      5-min Rain = 0
KLES 150240Z 07001KT 04/M01 A3043 RMK A01 T00381006  RH  073%=      5-min Rain = 0
KLES 150245Z 07001KT 04/M01 A3043 RMK A01 T00361006  RH  075%=      5-min Rain = 0
KLES 150250Z 07001KT 04/M01 A3043 RMK A01 T00351006  RH  076%=      5-min Rain = 0
KLES 150255Z 07001KT 04/M01 A3043 RMK A01 T00351005  RH  076%=      5-min Rain = 0
KLES 150300Z 07002KT 03/M01 A3043 RMK A01 T00341006  RH  076%=      5-min Rain = 0
KLES 150305Z 07002KT 03/M01 A3044 RMK A01 T00321007  RH  076%=      5-min Rain = 0
KLES 150310Z 07002KT 03/M01 A3044 RMK A01 T00301008  RH  077%=      5-min Rain = 0
KLES 150315Z 07002KT 03/M01 A3044 RMK A01 T00301006  RH  078%=      5-min Rain = 0
KLES 150320Z 07002KT 03/M00 A3044 RMK A01 T00311004  RH  078%=      5-min Rain = 0
KLES 150325Z 07002KT 03/M01 A3044 RMK A01 T00311005  RH  078%=      5-min Rain = 0
KLES 150330Z 07002KT 03/M01 A3044 RMK A01 T00281007  RH  079%=      5-min Rain = 0
KLES 150335Z 08002KT 03/M01 A3044 RMK A01 T00271008  RH  079%=      5-min Rain = 0
KLES 150340Z 08002KT 03/M00 A3044 RMK A01 T00281004  RH  081%=      5-min Rain = 0
KLES 150345Z 08002KT 03/M00 A3044 RMK A01 T00291004  RH  080%=      5-min Rain = 0
KLES 150350Z 08002KT 03/M01 A3044 RMK A01 T00271006  RH  080%=      5-min Rain = 0
KLES 150355Z 08002KT 03/M00 A3044 RMK A01 T00281003  RH  081%=      5-min Rain = 0
KLES 150400Z 08002KT 03/M00 A3044 RMK A01 T00301002  RH  081%=      5-min Rain = 0
KLES 150405Z 08001KT 03/M00 A3044 RMK A01 T00301003  RH  080%=      5-min Rain = 0
KLES 150410Z 08002KT 03/M00 A3044 RMK A01 T00281004  RH  080%=      5-min Rain = 0
KLES 150415Z 08002KT 03/M00 A3044 RMK A01 T00281004  RH  080%=      5-min Rain = 0
KLES 150420Z 08002KT 03/M01 A3044 RMK A01 T00271005  RH  080%=      5-min Rain = 0
KLES 150425Z 08002KT 03/M01 A3044 RMK A01 T00251007  RH  080%=      5-min Rain = 0
KLES 150430Z 08002KT 02/M01 A3044 RMK A01 T00231009  RH  081%=      5-min Rain = 0
KLES 150435Z 08002KT 02/M01 A3044 RMK A01 T00231007  RH  082%=      5-min Rain = 0
KLES 150440Z 08001KT 02/M01 A3044 RMK A01 T00231006  RH  082%=      5-min Rain = 0
KLES 150445Z 08000KT 02/M01 A3044 RMK A01 T00241005  RH  082%=      5-min Rain = 0
KLES 150450Z 08000KT 03/M00 A3044 RMK A01 T00251004  RH  082%=      5-min Rain = 0
KLES 150455Z 06000KT 02/M01 A3044 RMK A01 T00231006  RH  082%=      5-min Rain = 0
KLES 150500Z 07001KT 02/M01 A3044 RMK A01 T00211007  RH  082%=      5-min Rain = 0
KLES 150505Z 07001KT 02/M01 A3044 RMK A01 T00191009  RH  083%=      5-min Rain = 0
KLES 150510Z 07000KT 02/M01 A3044 RMK A01 T00181009  RH  083%=      5-min Rain = 0
KLES 150515Z 07000KT 02/M01 A3044 RMK A01 T00191006  RH  084%=      5-min Rain = 0
KLES 150520Z 00000KT 02/M00 A3044 RMK A01 T00221004  RH  084%=      5-min Rain = 0
KLES 150525Z 00000KT 02/M00 A3044 RMK A01 T00241002  RH  084%=      5-min Rain = 0
KLES 150530Z 00000KT 03/M00 A3044 RMK A01 T00281001  RH  082%=      5-min Rain = 0
KLES 150535Z 00000KT 03/M00 A3044 RMK A01 T00291004  RH  080%=      5-min Rain = 0
KLES 150540Z 00000KT 03/M00 A3044 RMK A01 T00271004  RH  081%=      5-min Rain = 0
KLES 150545Z 00000KT 03/M00 A3044 RMK A01 T00271004  RH  081%=      5-min Rain = 0
KLES 150550Z 00000KT 03/M01 A3044 RMK A01 T00261005  RH  081%=      5-min Rain = 0
KLES 150555Z 00000KT 03/M00 A3044 RMK A01 T00261004  RH  081%=      5-min Rain = 0

Page generated in 0.0096 seconds.